Brant — 5BBK2 — position and weather

sailwx.info

Track history (hours):
 
Tides and Currents Weather Stations Pressure Air Temp Water Temp Dewpoint Dewpoint Depression Visibility Wind Speed Wind Dir Waves Ship Positions

Brant

Last reported at 2017-Jul-19 10:04 UTC. Time now 2017-Jul-27 18:41 UTC.
Position N 26°10' W 079°25'.
Warning: this ship's position is 8 days out of date.

Length 185 m; draft 10.8 m.

Type: Cargo ship. MMSI: 212372000.

Date/timePositionNaut miles runAvg speedWind from/ knotsBaromVisibWave heightAir tempDewpointWater temp
2017-Jul-19 10:04N 26°10' W 079°25'114.3
2017-Jul-19 09:59N 26°09' W 079°25'914.3
2017-Jul-19 09:19N 25°60' W 079°27'514.1
2017-Jul-19 08:59N 25°55' W 079°27'714.0
2017-Jul-19 08:30N 25°48' W 079°28'713.9
2017-Jul-19 08:00N 25°41' W 079°30'714.0
2017-Jul-19 07:31N 25°35' W 079°31'  
2017-Jul-10 04:20N 30°03' W 090°34'7 7.7
2017-Jul-10 03:23N 29°60' W 090°27'4 8.0
2017-Jul-10 02:53N 29°57' W 090°23'  
Track history (hours):
 
Tides and Currents Weather Stations Pressure Air Temp Water Temp Dewpoint Dewpoint Depression Visibility Wind Speed Wind Dir Waves Ship Positions

Brant

Last reported at 2017-Jul-19 10:04 UTC. Time now 2017-Jul-27 18:41 UTC.
Position N 26°10' W 079°25'.
Warning: this ship's position is 8 days out of date.

Length 185 m; draft 10.8 m.

Type: Cargo ship. MMSI: 212372000.

Date/timePositionNaut miles runAvg speedWind from/ knotsBaromVisibWave heightAir tempDewpointWater temp
2017-Jul-19 10:04N 26°10' W 079°25'114.3
2017-Jul-19 09:59N 26°09' W 079°25'914.3
2017-Jul-19 09:19N 25°60' W 079°27'514.1
2017-Jul-19 08:59N 25°55' W 079°27'714.0
2017-Jul-19 08:30N 25°48' W 079°28'713.9
2017-Jul-19 08:00N 25°41' W 079°30'714.0
2017-Jul-19 07:31N 25°35' W 079°31'  
2017-Jul-10 04:20N 30°03' W 090°34'7 7.7
2017-Jul-10 03:23N 29°60' W 090°27'4 8.0
2017-Jul-10 02:53N 29°57' W 090°23'  

Dump ship's entire track history